<?xml version="1.0" encoding="UTF-8" standalone="no" ?>
<gpx xmlns="http://www.topografix.com/GPX/1/1" xmlns:xsi="http://www.w3.org/2001/XMLSchema-instance" xsi:schemaLocation="http://www.topografix.com/GPX/1/1 http://www.topografix.com/GPX/1/1/gpx.xsd" version="1.1" creator="VisuGPX - https://www.visugpx.com">
  <metadata>
    <name>Pics dels Moros 12km 500m</name>
    <desc><![CDATA[Une randonnée en boucle vers le Pic dels Moros et le refuge de la Calma depuis Egat.]]></desc>
  </metadata>
  <trk>
    <name><![CDATA[2008-0227 Pic dels Moros - TraceGps.com issued]]></name>
    <trkseg>
      <trkpt lat="42.50755" lon="2.0181">
        <ele>1748</ele>
        <time>2008-02-27T10:35:03Z</time>
      </trkpt>
      <trkpt lat="42.50758" lon="2.01827">
        <ele>1750</ele>
        <time>2008-02-27T10:35:33Z</time>
      </trkpt>
      <trkpt lat="42.50762" lon="2.01842">
        <ele>1751</ele>
        <time>2008-02-27T10:36:04Z</time>
      </trkpt>
      <trkpt lat="42.50773" lon="2.0183">
        <ele>1752</ele>
        <time>2008-02-27T10:36:34Z</time>
      </trkpt>
      <trkpt lat="42.5078" lon="2.01813">
        <ele>1753</ele>
        <time>2008-02-27T10:37:04Z</time>
      </trkpt>
      <trkpt lat="42.50782" lon="2.01812">
        <ele>1754</ele>
        <time>2008-02-27T10:37:35Z</time>
      </trkpt>
      <trkpt lat="42.50782" lon="2.01813">
        <ele>1754</ele>
        <time>2008-02-27T10:38:05Z</time>
      </trkpt>
      <trkpt lat="42.50782" lon="2.0181">
        <ele>1754</ele>
        <time>2008-02-27T10:38:36Z</time>
      </trkpt>
      <trkpt lat="42.50775" lon="2.0177">
        <ele>1750</ele>
        <time>2008-02-27T10:39:06Z</time>
      </trkpt>
      <trkpt lat="42.50765" lon="2.01738">
        <ele>1746</ele>
        <time>2008-02-27T10:39:36Z</time>
      </trkpt>
      <trkpt lat="42.50763" lon="2.01732">
        <ele>1746</ele>
        <time>2008-02-27T10:40:07Z</time>
      </trkpt>
      <trkpt lat="42.50755" lon="2.01713">
        <ele>1743</ele>
        <time>2008-02-27T10:40:37Z</time>
      </trkpt>
      <trkpt lat="42.50743" lon="2.01682">
        <ele>1740</ele>
        <time>2008-02-27T10:41:08Z</time>
      </trkpt>
      <trkpt lat="42.5074" lon="2.01668">
        <ele>1740</ele>
        <time>2008-02-27T10:41:38Z</time>
      </trkpt>
      <trkpt lat="42.5074" lon="2.01663">
        <ele>1741</ele>
        <time>2008-02-27T10:42:08Z</time>
      </trkpt>
      <trkpt lat="42.50717" lon="2.01675">
        <ele>1733</ele>
        <time>2008-02-27T10:42:39Z</time>
      </trkpt>
      <trkpt lat="42.50692" lon="2.01678">
        <ele>1725</ele>
        <time>2008-02-27T10:43:09Z</time>
      </trkpt>
      <trkpt lat="42.50683" lon="2.01673">
        <ele>1723</ele>
        <time>2008-02-27T10:43:40Z</time>
      </trkpt>
      <trkpt lat="42.50677" lon="2.01627">
        <ele>1729</ele>
        <time>2008-02-27T10:44:10Z</time>
      </trkpt>
      <trkpt lat="42.50658" lon="2.0159">
        <ele>1729</ele>
        <time>2008-02-27T10:44:40Z</time>
      </trkpt>
      <trkpt lat="42.50643" lon="2.01547">
        <ele>1729</ele>
        <time>2008-02-27T10:45:11Z</time>
      </trkpt>
      <trkpt lat="42.50627" lon="2.01505">
        <ele>1728</ele>
        <time>2008-02-27T10:45:41Z</time>
      </trkpt>
      <trkpt lat="42.50605" lon="2.01483">
        <ele>1724</ele>
        <time>2008-02-27T10:46:12Z</time>
      </trkpt>
      <trkpt lat="42.50577" lon="2.01447">
        <ele>1722</ele>
        <time>2008-02-27T10:46:42Z</time>
      </trkpt>
      <trkpt lat="42.50552" lon="2.01398">
        <ele>1724</ele>
        <time>2008-02-27T10:47:12Z</time>
      </trkpt>
      <trkpt lat="42.50537" lon="2.0135">
        <ele>1727</ele>
        <time>2008-02-27T10:47:43Z</time>
      </trkpt>
      <trkpt lat="42.5052" lon="2.01313">
        <ele>1727</ele>
        <time>2008-02-27T10:48:13Z</time>
      </trkpt>
      <trkpt lat="42.50517" lon="2.01267">
        <ele>1729</ele>
        <time>2008-02-27T10:48:43Z</time>
      </trkpt>
      <trkpt lat="42.50513" lon="2.01228">
        <ele>1730</ele>
        <time>2008-02-27T10:49:13Z</time>
      </trkpt>
      <trkpt lat="42.50515" lon="2.01192">
        <ele>1734</ele>
        <time>2008-02-27T10:49:44Z</time>
      </trkpt>
      <trkpt lat="42.5052" lon="2.01207">
        <ele>1735</ele>
        <time>2008-02-27T10:50:14Z</time>
      </trkpt>
      <trkpt lat="42.50533" lon="2.0123">
        <ele>1738</ele>
        <time>2008-02-27T10:50:44Z</time>
      </trkpt>
      <trkpt lat="42.5055" lon="2.0126">
        <ele>1742</ele>
        <time>2008-02-27T10:51:15Z</time>
      </trkpt>
      <trkpt lat="42.50575" lon="2.01275">
        <ele>1750</ele>
        <time>2008-02-27T10:51:45Z</time>
      </trkpt>
      <trkpt lat="42.50595" lon="2.01302">
        <ele>1755</ele>
        <time>2008-02-27T10:52:15Z</time>
      </trkpt>
      <trkpt lat="42.506" lon="2.01297">
        <ele>1758</ele>
        <time>2008-02-27T10:52:46Z</time>
      </trkpt>
      <trkpt lat="42.506" lon="2.01298">
        <ele>1758</ele>
        <time>2008-02-27T10:53:16Z</time>
      </trkpt>
      <trkpt lat="42.50598" lon="2.0129">
        <ele>1758</ele>
        <time>2008-02-27T10:53:47Z</time>
      </trkpt>
      <trkpt lat="42.50595" lon="2.01282">
        <ele>1758</ele>
        <time>2008-02-27T10:54:17Z</time>
      </trkpt>
      <trkpt lat="42.50583" lon="2.01243">
        <ele>1758</ele>
        <time>2008-02-27T10:54:48Z</time>
      </trkpt>
      <trkpt lat="42.50578" lon="2.01212">
        <ele>1760</ele>
        <time>2008-02-27T10:55:18Z</time>
      </trkpt>
      <trkpt lat="42.50577" lon="2.01168">
        <ele>1766</ele>
        <time>2008-02-27T10:55:48Z</time>
      </trkpt>
      <trkpt lat="42.50572" lon="2.0113">
        <ele>1769</ele>
        <time>2008-02-27T10:56:19Z</time>
      </trkpt>
      <trkpt lat="42.50568" lon="2.01085">
        <ele>1772</ele>
        <time>2008-02-27T10:56:49Z</time>
      </trkpt>
      <trkpt lat="42.50565" lon="2.01048">
        <ele>1775</ele>
        <time>2008-02-27T10:57:19Z</time>
      </trkpt>
      <trkpt lat="42.50562" lon="2.01017">
        <ele>1777</ele>
        <time>2008-02-27T10:57:50Z</time>
      </trkpt>
      <trkpt lat="42.50567" lon="2.00977">
        <ele>1782</ele>
        <time>2008-02-27T10:58:20Z</time>
      </trkpt>
      <trkpt lat="42.5057" lon="2.00943">
        <ele>1784</ele>
        <time>2008-02-27T10:58:50Z</time>
      </trkpt>
      <trkpt lat="42.50575" lon="2.00905">
        <ele>1786</ele>
        <time>2008-02-27T10:59:21Z</time>
      </trkpt>
      <trkpt lat="42.50577" lon="2.00883">
        <ele>1788</ele>
        <time>2008-02-27T10:59:51Z</time>
      </trkpt>
      <trkpt lat="42.50578" lon="2.0086">
        <ele>1791</ele>
        <time>2008-02-27T11:00:22Z</time>
      </trkpt>
      <trkpt lat="42.50582" lon="2.00813">
        <ele>1798</ele>
        <time>2008-02-27T11:00:52Z</time>
      </trkpt>
      <trkpt lat="42.50577" lon="2.00777">
        <ele>1801</ele>
        <time>2008-02-27T11:01:22Z</time>
      </trkpt>
      <trkpt lat="42.50568" lon="2.0074">
        <ele>1804</ele>
        <time>2008-02-27T11:01:53Z</time>
      </trkpt>
      <trkpt lat="42.50557" lon="2.007">
        <ele>1805</ele>
        <time>2008-02-27T11:02:23Z</time>
      </trkpt>
      <trkpt lat="42.50545" lon="2.00658">
        <ele>1806</ele>
        <time>2008-02-27T11:02:53Z</time>
      </trkpt>
      <trkpt lat="42.50542" lon="2.00618">
        <ele>1812</ele>
        <time>2008-02-27T11:03:24Z</time>
      </trkpt>
      <trkpt lat="42.5053" lon="2.00588">
        <ele>1812</ele>
        <time>2008-02-27T11:03:54Z</time>
      </trkpt>
      <trkpt lat="42.50523" lon="2.00548">
        <ele>1815</ele>
        <time>2008-02-27T11:04:24Z</time>
      </trkpt>
      <trkpt lat="42.50517" lon="2.00515">
        <ele>1817</ele>
        <time>2008-02-27T11:04:55Z</time>
      </trkpt>
      <trkpt lat="42.50513" lon="2.00487">
        <ele>1820</ele>
        <time>2008-02-27T11:05:25Z</time>
      </trkpt>
      <trkpt lat="42.50518" lon="2.00452">
        <ele>1825</ele>
        <time>2008-02-27T11:05:55Z</time>
      </trkpt>
      <trkpt lat="42.50523" lon="2.00422">
        <ele>1827</ele>
        <time>2008-02-27T11:06:26Z</time>
      </trkpt>
      <trkpt lat="42.50525" lon="2.00418">
        <ele>1828</ele>
        <time>2008-02-27T11:06:56Z</time>
      </trkpt>
      <trkpt lat="42.50528" lon="2.00412">
        <ele>1830</ele>
        <time>2008-02-27T11:07:27Z</time>
      </trkpt>
      <trkpt lat="42.50548" lon="2.00385">
        <ele>1836</ele>
        <time>2008-02-27T11:10:29Z</time>
      </trkpt>
      <trkpt lat="42.50563" lon="2.00365">
        <ele>1839</ele>
        <time>2008-02-27T11:11:00Z</time>
      </trkpt>
      <trkpt lat="42.50565" lon="2.00388">
        <ele>1843</ele>
        <time>2008-02-27T11:11:30Z</time>
      </trkpt>
      <trkpt lat="42.50567" lon="2.0042">
        <ele>1847</ele>
        <time>2008-02-27T11:12:00Z</time>
      </trkpt>
      <trkpt lat="42.50568" lon="2.00443">
        <ele>1848</ele>
        <time>2008-02-27T11:12:31Z</time>
      </trkpt>
      <trkpt lat="42.50578" lon="2.00475">
        <ele>1853</ele>
        <time>2008-02-27T11:13:01Z</time>
      </trkpt>
      <trkpt lat="42.50593" lon="2.00508">
        <ele>1857</ele>
        <time>2008-02-27T11:13:31Z</time>
      </trkpt>
      <trkpt lat="42.50607" lon="2.0054">
        <ele>1860</ele>
        <time>2008-02-27T11:14:02Z</time>
      </trkpt>
      <trkpt lat="42.50618" lon="2.00567">
        <ele>1862</ele>
        <time>2008-02-27T11:14:32Z</time>
      </trkpt>
      <trkpt lat="42.50625" lon="2.00592">
        <ele>1862</ele>
        <time>2008-02-27T11:15:03Z</time>
      </trkpt>
      <trkpt lat="42.50645" lon="2.00623">
        <ele>1865</ele>
        <time>2008-02-27T11:15:33Z</time>
      </trkpt>
      <trkpt lat="42.50673" lon="2.00647">
        <ele>1874</ele>
        <time>2008-02-27T11:16:03Z</time>
      </trkpt>
      <trkpt lat="42.50692" lon="2.00672">
        <ele>1877</ele>
        <time>2008-02-27T11:16:34Z</time>
      </trkpt>
      <trkpt lat="42.50723" lon="2.00685">
        <ele>1888</ele>
        <time>2008-02-27T11:17:04Z</time>
      </trkpt>
      <trkpt lat="42.50745" lon="2.00705">
        <ele>1893</ele>
        <time>2008-02-27T11:17:34Z</time>
      </trkpt>
      <trkpt lat="42.50755" lon="2.00742">
        <ele>1890</ele>
        <time>2008-02-27T11:18:05Z</time>
      </trkpt>
      <trkpt lat="42.50772" lon="2.00767">
        <ele>1892</ele>
        <time>2008-02-27T11:18:35Z</time>
      </trkpt>
      <trkpt lat="42.50788" lon="2.008">
        <ele>1895</ele>
        <time>2008-02-27T11:19:06Z</time>
      </trkpt>
      <trkpt lat="42.50797" lon="2.00828">
        <ele>1896</ele>
        <time>2008-02-27T11:19:36Z</time>
      </trkpt>
      <trkpt lat="42.50808" lon="2.00862">
        <ele>1900</ele>
        <time>2008-02-27T11:20:06Z</time>
      </trkpt>
      <trkpt lat="42.50823" lon="2.00898">
        <ele>1907</ele>
        <time>2008-02-27T11:20:37Z</time>
      </trkpt>
      <trkpt lat="42.50827" lon="2.0093">
        <ele>1909</ele>
        <time>2008-02-27T11:21:07Z</time>
      </trkpt>
      <trkpt lat="42.5083" lon="2.0097">
        <ele>1912</ele>
        <time>2008-02-27T11:21:37Z</time>
      </trkpt>
      <trkpt lat="42.50832" lon="2.0099">
        <ele>1914</ele>
        <time>2008-02-27T11:22:08Z</time>
      </trkpt>
      <trkpt lat="42.50833" lon="2.01028">
        <ele>1917</ele>
        <time>2008-02-27T11:22:38Z</time>
      </trkpt>
      <trkpt lat="42.5083" lon="2.01065">
        <ele>1917</ele>
        <time>2008-02-27T11:23:08Z</time>
      </trkpt>
      <trkpt lat="42.5084" lon="2.01077">
        <ele>1918</ele>
        <time>2008-02-27T11:23:39Z</time>
      </trkpt>
      <trkpt lat="42.5084" lon="2.01073">
        <ele>1919</ele>
        <time>2008-02-27T11:24:09Z</time>
      </trkpt>
      <trkpt lat="42.50837" lon="2.01073">
        <ele>1918</ele>
        <time>2008-02-27T11:47:00Z</time>
      </trkpt>
      <trkpt lat="42.50852" lon="2.01048">
        <ele>1921</ele>
        <time>2008-02-27T11:47:30Z</time>
      </trkpt>
      <trkpt lat="42.50867" lon="2.01012">
        <ele>1927</ele>
        <time>2008-02-27T11:48:01Z</time>
      </trkpt>
      <trkpt lat="42.50887" lon="2.01023">
        <ele>1928</ele>
        <time>2008-02-27T11:48:31Z</time>
      </trkpt>
      <trkpt lat="42.50917" lon="2.01025">
        <ele>1930</ele>
        <time>2008-02-27T11:49:01Z</time>
      </trkpt>
      <trkpt lat="42.50945" lon="2.01027">
        <ele>1929</ele>
        <time>2008-02-27T11:49:32Z</time>
      </trkpt>
      <trkpt lat="42.50977" lon="2.01028">
        <ele>1928</ele>
        <time>2008-02-27T11:50:02Z</time>
      </trkpt>
      <trkpt lat="42.51015" lon="2.0103">
        <ele>1927</ele>
        <time>2008-02-27T11:50:32Z</time>
      </trkpt>
      <trkpt lat="42.5104" lon="2.01032">
        <ele>1926</ele>
        <time>2008-02-27T11:51:03Z</time>
      </trkpt>
      <trkpt lat="42.51047" lon="2.01028">
        <ele>1927</ele>
        <time>2008-02-27T11:51:33Z</time>
      </trkpt>
      <trkpt lat="42.5106" lon="2.01007">
        <ele>1931</ele>
        <time>2008-02-27T11:52:03Z</time>
      </trkpt>
      <trkpt lat="42.51078" lon="2.00983">
        <ele>1934</ele>
        <time>2008-02-27T11:52:34Z</time>
      </trkpt>
      <trkpt lat="42.51093" lon="2.00973">
        <ele>1934</ele>
        <time>2008-02-27T11:53:04Z</time>
      </trkpt>
      <trkpt lat="42.51102" lon="2.00965">
        <ele>1934</ele>
        <time>2008-02-27T11:53:35Z</time>
      </trkpt>
      <trkpt lat="42.51105" lon="2.00962">
        <ele>1935</ele>
        <time>2008-02-27T11:54:05Z</time>
      </trkpt>
      <trkpt lat="42.51107" lon="2.00963">
        <ele>1934</ele>
        <time>2008-02-27T11:54:35Z</time>
      </trkpt>
      <trkpt lat="42.51153" lon="2.00977">
        <ele>1931</ele>
        <time>2008-02-27T11:55:06Z</time>
      </trkpt>
      <trkpt lat="42.51178" lon="2.00975">
        <ele>1930</ele>
        <time>2008-02-27T11:55:36Z</time>
      </trkpt>
      <trkpt lat="42.512" lon="2.00968">
        <ele>1930</ele>
        <time>2008-02-27T11:56:07Z</time>
      </trkpt>
      <trkpt lat="42.51228" lon="2.00953">
        <ele>1930</ele>
        <time>2008-02-27T11:56:37Z</time>
      </trkpt>
      <trkpt lat="42.51257" lon="2.00938">
        <ele>1929</ele>
        <time>2008-02-27T11:57:07Z</time>
      </trkpt>
      <trkpt lat="42.51278" lon="2.00923">
        <ele>1929</ele>
        <time>2008-02-27T11:57:38Z</time>
      </trkpt>
      <trkpt lat="42.513" lon="2.00907">
        <ele>1930</ele>
        <time>2008-02-27T11:58:08Z</time>
      </trkpt>
      <trkpt lat="42.51312" lon="2.00895">
        <ele>1930</ele>
        <time>2008-02-27T11:58:38Z</time>
      </trkpt>
      <trkpt lat="42.51298" lon="2.00883">
        <ele>1930</ele>
        <time>2008-02-27T11:59:09Z</time>
      </trkpt>
      <trkpt lat="42.51285" lon="2.00872">
        <ele>1929</ele>
        <time>2008-02-27T11:59:39Z</time>
      </trkpt>
      <trkpt lat="42.51275" lon="2.00847">
        <ele>1928</ele>
        <time>2008-02-27T12:00:09Z</time>
      </trkpt>
      <trkpt lat="42.5126" lon="2.00813">
        <ele>1926</ele>
        <time>2008-02-27T12:00:40Z</time>
      </trkpt>
      <trkpt lat="42.5125" lon="2.0077">
        <ele>1923</ele>
        <time>2008-02-27T12:01:10Z</time>
      </trkpt>
      <trkpt lat="42.51253" lon="2.00723">
        <ele>1919</ele>
        <time>2008-02-27T12:01:40Z</time>
      </trkpt>
      <trkpt lat="42.51252" lon="2.00693">
        <ele>1917</ele>
        <time>2008-02-27T12:02:10Z</time>
      </trkpt>
      <trkpt lat="42.5125" lon="2.00692">
        <ele>1917</ele>
        <time>2008-02-27T12:02:41Z</time>
      </trkpt>
      <trkpt lat="42.51237" lon="2.00682">
        <ele>1917</ele>
        <time>2008-02-27T12:03:11Z</time>
      </trkpt>
      <trkpt lat="42.51203" lon="2.00662">
        <ele>1916</ele>
        <time>2008-02-27T12:03:42Z</time>
      </trkpt>
      <trkpt lat="42.5119" lon="2.00643">
        <ele>1915</ele>
        <time>2008-02-27T12:04:12Z</time>
      </trkpt>
      <trkpt lat="42.51182" lon="2.00605">
        <ele>1914</ele>
        <time>2008-02-27T12:04:42Z</time>
      </trkpt>
      <trkpt lat="42.51185" lon="2.00572">
        <ele>1914</ele>
        <time>2008-02-27T12:05:13Z</time>
      </trkpt>
      <trkpt lat="42.51188" lon="2.00537">
        <ele>1916</ele>
        <time>2008-02-27T12:05:43Z</time>
      </trkpt>
      <trkpt lat="42.51193" lon="2.00507">
        <ele>1920</ele>
        <time>2008-02-27T12:06:13Z</time>
      </trkpt>
      <trkpt lat="42.51192" lon="2.00473">
        <ele>1923</ele>
        <time>2008-02-27T12:06:44Z</time>
      </trkpt>
      <trkpt lat="42.51183" lon="2.00438">
        <ele>1926</ele>
        <time>2008-02-27T12:07:14Z</time>
      </trkpt>
      <trkpt lat="42.51172" lon="2.00403">
        <ele>1929</ele>
        <time>2008-02-27T12:07:44Z</time>
      </trkpt>
      <trkpt lat="42.51158" lon="2.0037">
        <ele>1931</ele>
        <time>2008-02-27T12:08:15Z</time>
      </trkpt>
      <trkpt lat="42.51148" lon="2.00333">
        <ele>1935</ele>
        <time>2008-02-27T12:08:45Z</time>
      </trkpt>
      <trkpt lat="42.51145" lon="2.00297">
        <ele>1939</ele>
        <time>2008-02-27T12:09:15Z</time>
      </trkpt>
      <trkpt lat="42.51163" lon="2.00312">
        <ele>1941</ele>
        <time>2008-02-27T12:09:46Z</time>
      </trkpt>
      <trkpt lat="42.5119" lon="2.00323">
        <ele>1946</ele>
        <time>2008-02-27T12:10:16Z</time>
      </trkpt>
      <trkpt lat="42.5121" lon="2.00333">
        <ele>1951</ele>
        <time>2008-02-27T12:10:46Z</time>
      </trkpt>
      <trkpt lat="42.5121" lon="2.00335">
        <ele>1951</ele>
        <time>2008-02-27T12:11:17Z</time>
      </trkpt>
      <trkpt lat="42.51212" lon="2.00333">
        <ele>1951</ele>
        <time>2008-02-27T12:11:47Z</time>
      </trkpt>
      <trkpt lat="42.51213" lon="2.00302">
        <ele>1955</ele>
        <time>2008-02-27T12:12:18Z</time>
      </trkpt>
      <trkpt lat="42.51217" lon="2.00267">
        <ele>1959</ele>
        <time>2008-02-27T12:12:48Z</time>
      </trkpt>
      <trkpt lat="42.51222" lon="2.00227">
        <ele>1964</ele>
        <time>2008-02-27T12:13:18Z</time>
      </trkpt>
      <trkpt lat="42.51223" lon="2.00198">
        <ele>1967</ele>
        <time>2008-02-27T12:13:49Z</time>
      </trkpt>
      <trkpt lat="42.51227" lon="2.0016">
        <ele>1971</ele>
        <time>2008-02-27T12:14:19Z</time>
      </trkpt>
      <trkpt lat="42.51227" lon="2.00147">
        <ele>1973</ele>
        <time>2008-02-27T12:14:49Z</time>
      </trkpt>
      <trkpt lat="42.51228" lon="2.00107">
        <ele>1977</ele>
        <time>2008-02-27T12:15:20Z</time>
      </trkpt>
      <trkpt lat="42.5123" lon="2.00092">
        <ele>1979</ele>
        <time>2008-02-27T12:15:50Z</time>
      </trkpt>
      <trkpt lat="42.51233" lon="2.00053">
        <ele>1985</ele>
        <time>2008-02-27T12:16:21Z</time>
      </trkpt>
      <trkpt lat="42.51237" lon="2.00022">
        <ele>1988</ele>
        <time>2008-02-27T12:16:51Z</time>
      </trkpt>
      <trkpt lat="42.51238" lon="1.99985">
        <ele>1992</ele>
        <time>2008-02-27T12:17:21Z</time>
      </trkpt>
      <trkpt lat="42.51235" lon="1.99943">
        <ele>1995</ele>
        <time>2008-02-27T12:17:52Z</time>
      </trkpt>
      <trkpt lat="42.51228" lon="1.99907">
        <ele>1996</ele>
        <time>2008-02-27T12:18:22Z</time>
      </trkpt>
      <trkpt lat="42.51222" lon="1.99868">
        <ele>1999</ele>
        <time>2008-02-27T12:18:52Z</time>
      </trkpt>
      <trkpt lat="42.5122" lon="1.9986">
        <ele>1999</ele>
        <time>2008-02-27T12:19:23Z</time>
      </trkpt>
      <trkpt lat="42.51213" lon="1.99815">
        <ele>2003</ele>
        <time>2008-02-27T12:19:53Z</time>
      </trkpt>
      <trkpt lat="42.51205" lon="1.9978">
        <ele>2005</ele>
        <time>2008-02-27T12:20:24Z</time>
      </trkpt>
      <trkpt lat="42.51193" lon="1.99747">
        <ele>2007</ele>
        <time>2008-02-27T12:20:54Z</time>
      </trkpt>
      <trkpt lat="42.51178" lon="1.99708">
        <ele>2010</ele>
        <time>2008-02-27T12:21:24Z</time>
      </trkpt>
      <trkpt lat="42.51162" lon="1.99673">
        <ele>2013</ele>
        <time>2008-02-27T12:21:55Z</time>
      </trkpt>
      <trkpt lat="42.51142" lon="1.99648">
        <ele>2015</ele>
        <time>2008-02-27T12:22:25Z</time>
      </trkpt>
      <trkpt lat="42.51118" lon="1.99618">
        <ele>2016</ele>
        <time>2008-02-27T12:22:55Z</time>
      </trkpt>
      <trkpt lat="42.51108" lon="1.99603">
        <ele>2016</ele>
        <time>2008-02-27T12:23:26Z</time>
      </trkpt>
      <trkpt lat="42.51107" lon="1.99575">
        <ele>2020</ele>
        <time>2008-02-27T12:23:56Z</time>
      </trkpt>
      <trkpt lat="42.51107" lon="1.99552">
        <ele>2023</ele>
        <time>2008-02-27T12:24:26Z</time>
      </trkpt>
      <trkpt lat="42.51107" lon="1.99513">
        <ele>2028</ele>
        <time>2008-02-27T12:24:57Z</time>
      </trkpt>
      <trkpt lat="42.51103" lon="1.99483">
        <ele>2033</ele>
        <time>2008-02-27T12:25:27Z</time>
      </trkpt>
      <trkpt lat="42.51102" lon="1.99468">
        <ele>2035</ele>
        <time>2008-02-27T12:25:57Z</time>
      </trkpt>
      <trkpt lat="42.511" lon="1.99443">
        <ele>2039</ele>
        <time>2008-02-27T12:26:28Z</time>
      </trkpt>
      <trkpt lat="42.51092" lon="1.99407">
        <ele>2043</ele>
        <time>2008-02-27T12:26:58Z</time>
      </trkpt>
      <trkpt lat="42.51085" lon="1.99375">
        <ele>2047</ele>
        <time>2008-02-27T12:27:28Z</time>
      </trkpt>
      <trkpt lat="42.5108" lon="1.99362">
        <ele>2047</ele>
        <time>2008-02-27T12:27:59Z</time>
      </trkpt>
      <trkpt lat="42.51082" lon="1.99358">
        <ele>2048</ele>
        <time>2008-02-27T12:28:29Z</time>
      </trkpt>
      <trkpt lat="42.5109" lon="1.9931">
        <ele>2055</ele>
        <time>2008-02-27T12:28:59Z</time>
      </trkpt>
      <trkpt lat="42.5109" lon="1.99275">
        <ele>2058</ele>
        <time>2008-02-27T12:29:30Z</time>
      </trkpt>
      <trkpt lat="42.5109" lon="1.99242">
        <ele>2062</ele>
        <time>2008-02-27T12:30:00Z</time>
      </trkpt>
      <trkpt lat="42.51092" lon="1.99218">
        <ele>2065</ele>
        <time>2008-02-27T12:30:30Z</time>
      </trkpt>
      <trkpt lat="42.5109" lon="1.99187">
        <ele>2068</ele>
        <time>2008-02-27T12:31:01Z</time>
      </trkpt>
      <trkpt lat="42.5109" lon="1.99185">
        <ele>2068</ele>
        <time>2008-02-27T12:31:31Z</time>
      </trkpt>
      <trkpt lat="42.51088" lon="1.99185">
        <ele>2067</ele>
        <time>2008-02-27T12:32:02Z</time>
      </trkpt>
      <trkpt lat="42.51088" lon="1.99185">
        <ele>2067</ele>
        <time>2008-02-27T12:32:32Z</time>
      </trkpt>
      <trkpt lat="42.5109" lon="1.99173">
        <ele>2069</ele>
        <time>2008-02-27T12:33:02Z</time>
      </trkpt>
      <trkpt lat="42.51095" lon="1.99147">
        <ele>2073</ele>
        <time>2008-02-27T12:33:33Z</time>
      </trkpt>
      <trkpt lat="42.51105" lon="1.99115">
        <ele>2078</ele>
        <time>2008-02-27T12:34:03Z</time>
      </trkpt>
      <trkpt lat="42.5112" lon="1.99088">
        <ele>2084</ele>
        <time>2008-02-27T12:34:34Z</time>
      </trkpt>
      <trkpt lat="42.5112" lon="1.99055">
        <ele>2085</ele>
        <time>2008-02-27T12:35:04Z</time>
      </trkpt>
      <trkpt lat="42.51122" lon="1.99017">
        <ele>2087</ele>
        <time>2008-02-27T12:35:34Z</time>
      </trkpt>
      <trkpt lat="42.51127" lon="1.9899">
        <ele>2089</ele>
        <time>2008-02-27T12:36:05Z</time>
      </trkpt>
      <trkpt lat="42.51132" lon="1.98955">
        <ele>2091</ele>
        <time>2008-02-27T12:36:35Z</time>
      </trkpt>
      <trkpt lat="42.51133" lon="1.9895">
        <ele>2091</ele>
        <time>2008-02-27T12:37:05Z</time>
      </trkpt>
      <trkpt lat="42.51138" lon="1.98945">
        <ele>2092</ele>
        <time>2008-02-27T12:37:36Z</time>
      </trkpt>
      <trkpt lat="42.51157" lon="1.98943">
        <ele>2096</ele>
        <time>2008-02-27T12:38:06Z</time>
      </trkpt>
      <trkpt lat="42.51175" lon="1.98937">
        <ele>2100</ele>
        <time>2008-02-27T12:38:36Z</time>
      </trkpt>
      <trkpt lat="42.51193" lon="1.9894">
        <ele>2103</ele>
        <time>2008-02-27T12:39:07Z</time>
      </trkpt>
      <trkpt lat="42.5121" lon="1.98953">
        <ele>2107</ele>
        <time>2008-02-27T12:39:37Z</time>
      </trkpt>
      <trkpt lat="42.51228" lon="1.98963">
        <ele>2111</ele>
        <time>2008-02-27T12:40:07Z</time>
      </trkpt>
      <trkpt lat="42.51242" lon="1.98978">
        <ele>2114</ele>
        <time>2008-02-27T12:40:38Z</time>
      </trkpt>
      <trkpt lat="42.51257" lon="1.9899">
        <ele>2118</ele>
        <time>2008-02-27T12:41:08Z</time>
      </trkpt>
      <trkpt lat="42.5127" lon="1.98982">
        <ele>2119</ele>
        <time>2008-02-27T12:41:38Z</time>
      </trkpt>
      <trkpt lat="42.51288" lon="1.98982">
        <ele>2121</ele>
        <time>2008-02-27T12:42:09Z</time>
      </trkpt>
      <trkpt lat="42.5129" lon="1.99005">
        <ele>2122</ele>
        <time>2008-02-27T12:42:39Z</time>
      </trkpt>
      <trkpt lat="42.51303" lon="1.99022">
        <ele>2123</ele>
        <time>2008-02-27T12:43:09Z</time>
      </trkpt>
      <trkpt lat="42.51318" lon="1.99027">
        <ele>2123</ele>
        <time>2008-02-27T12:43:40Z</time>
      </trkpt>
      <trkpt lat="42.5132" lon="1.99043">
        <ele>2123</ele>
        <time>2008-02-27T12:44:10Z</time>
      </trkpt>
      <trkpt lat="42.51322" lon="1.99048">
        <ele>2123</ele>
        <time>2008-02-27T12:44:41Z</time>
      </trkpt>
      <trkpt lat="42.51322" lon="1.9905">
        <ele>2123</ele>
        <time>2008-02-27T12:45:11Z</time>
      </trkpt>
      <trkpt lat="42.51322" lon="1.99052">
        <ele>2123</ele>
        <time>2008-02-27T12:45:41Z</time>
      </trkpt>
      <trkpt lat="42.51322" lon="1.99052">
        <ele>2123</ele>
        <time>2008-02-27T12:46:12Z</time>
      </trkpt>
      <trkpt lat="42.51322" lon="1.99053">
        <ele>2123</ele>
        <time>2008-02-27T12:46:46Z</time>
      </trkpt>
      <trkpt lat="42.51322" lon="1.99053">
        <ele>2123</ele>
        <time>2008-02-27T12:47:17Z</time>
      </trkpt>
      <trkpt lat="42.51322" lon="1.99055">
        <ele>2123</ele>
        <time>2008-02-27T12:47:47Z</time>
      </trkpt>
      <trkpt lat="42.51325" lon="1.99058">
        <ele>2123</ele>
        <time>2008-02-27T12:48:18Z</time>
      </trkpt>
      <trkpt lat="42.51327" lon="1.99058">
        <ele>2124</ele>
        <time>2008-02-27T12:48:48Z</time>
      </trkpt>
      <trkpt lat="42.51333" lon="1.99062">
        <ele>2124</ele>
        <time>2008-02-27T12:49:18Z</time>
      </trkpt>
      <trkpt lat="42.51333" lon="1.9908">
        <ele>2123</ele>
        <time>2008-02-27T12:49:49Z</time>
      </trkpt>
      <trkpt lat="42.51343" lon="1.99075">
        <ele>2124</ele>
        <time>2008-02-27T13:21:45Z</time>
      </trkpt>
      <trkpt lat="42.5137" lon="1.99075">
        <ele>2124</ele>
        <time>2008-02-27T13:22:16Z</time>
      </trkpt>
      <trkpt lat="42.51383" lon="1.99093">
        <ele>2124</ele>
        <time>2008-02-27T13:22:46Z</time>
      </trkpt>
      <trkpt lat="42.51393" lon="1.99123">
        <ele>2124</ele>
        <time>2008-02-27T13:23:16Z</time>
      </trkpt>
      <trkpt lat="42.514" lon="1.99107">
        <ele>2124</ele>
        <time>2008-02-27T13:23:47Z</time>
      </trkpt>
      <trkpt lat="42.514" lon="1.99065">
        <ele>2124</ele>
        <time>2008-02-27T13:24:17Z</time>
      </trkpt>
      <trkpt lat="42.51383" lon="1.9902">
        <ele>2123</ele>
        <time>2008-02-27T13:24:47Z</time>
      </trkpt>
      <trkpt lat="42.51363" lon="1.98985">
        <ele>2123</ele>
        <time>2008-02-27T13:25:18Z</time>
      </trkpt>
      <trkpt lat="42.51365" lon="1.98977">
        <ele>2123</ele>
        <time>2008-02-27T13:25:48Z</time>
      </trkpt>
      <trkpt lat="42.5137" lon="1.98953">
        <ele>2122</ele>
        <time>2008-02-27T13:26:19Z</time>
      </trkpt>
      <trkpt lat="42.51392" lon="1.98935">
        <ele>2120</ele>
        <time>2008-02-27T13:26:49Z</time>
      </trkpt>
      <trkpt lat="42.51423" lon="1.98925">
        <ele>2119</ele>
        <time>2008-02-27T13:27:19Z</time>
      </trkpt>
      <trkpt lat="42.5145" lon="1.98913">
        <ele>2117</ele>
        <time>2008-02-27T13:27:49Z</time>
      </trkpt>
      <trkpt lat="42.51472" lon="1.98905">
        <ele>2115</ele>
        <time>2008-02-27T13:28:20Z</time>
      </trkpt>
      <trkpt lat="42.51492" lon="1.98863">
        <ele>2110</ele>
        <time>2008-02-27T13:28:50Z</time>
      </trkpt>
      <trkpt lat="42.51503" lon="1.98828">
        <ele>2106</ele>
        <time>2008-02-27T13:29:20Z</time>
      </trkpt>
      <trkpt lat="42.51522" lon="1.98802">
        <ele>2102</ele>
        <time>2008-02-27T13:29:51Z</time>
      </trkpt>
      <trkpt lat="42.51545" lon="1.98785">
        <ele>2099</ele>
        <time>2008-02-27T13:30:21Z</time>
      </trkpt>
      <trkpt lat="42.51577" lon="1.98777">
        <ele>2097</ele>
        <time>2008-02-27T13:30:51Z</time>
      </trkpt>
      <trkpt lat="42.51608" lon="1.9878">
        <ele>2096</ele>
        <time>2008-02-27T13:31:22Z</time>
      </trkpt>
      <trkpt lat="42.51625" lon="1.988">
        <ele>2097</ele>
        <time>2008-02-27T13:31:52Z</time>
      </trkpt>
      <trkpt lat="42.51648" lon="1.98835">
        <ele>2097</ele>
        <time>2008-02-27T13:32:22Z</time>
      </trkpt>
      <trkpt lat="42.5167" lon="1.9887">
        <ele>2096</ele>
        <time>2008-02-27T13:32:52Z</time>
      </trkpt>
      <trkpt lat="42.51692" lon="1.989">
        <ele>2095</ele>
        <time>2008-02-27T13:33:23Z</time>
      </trkpt>
      <trkpt lat="42.51712" lon="1.98928">
        <ele>2094</ele>
        <time>2008-02-27T13:33:53Z</time>
      </trkpt>
      <trkpt lat="42.5173" lon="1.98962">
        <ele>2093</ele>
        <time>2008-02-27T13:34:24Z</time>
      </trkpt>
      <trkpt lat="42.51752" lon="1.98995">
        <ele>2092</ele>
        <time>2008-02-27T13:34:54Z</time>
      </trkpt>
      <trkpt lat="42.51765" lon="1.99027">
        <ele>2091</ele>
        <time>2008-02-27T13:35:24Z</time>
      </trkpt>
      <trkpt lat="42.51785" lon="1.99065">
        <ele>2088</ele>
        <time>2008-02-27T13:35:55Z</time>
      </trkpt>
      <trkpt lat="42.5181" lon="1.99098">
        <ele>2085</ele>
        <time>2008-02-27T13:36:25Z</time>
      </trkpt>
      <trkpt lat="42.51817" lon="1.99112">
        <ele>2084</ele>
        <time>2008-02-27T13:36:55Z</time>
      </trkpt>
      <trkpt lat="42.51828" lon="1.99133">
        <ele>2082</ele>
        <time>2008-02-27T13:37:26Z</time>
      </trkpt>
      <trkpt lat="42.51833" lon="1.9914">
        <ele>2082</ele>
        <time>2008-02-27T13:37:56Z</time>
      </trkpt>
      <trkpt lat="42.51835" lon="1.99142">
        <ele>2082</ele>
        <time>2008-02-27T13:38:26Z</time>
      </trkpt>
      <trkpt lat="42.51845" lon="1.9916">
        <ele>2080</ele>
        <time>2008-02-27T13:38:57Z</time>
      </trkpt>
      <trkpt lat="42.5187" lon="1.992">
        <ele>2079</ele>
        <time>2008-02-27T13:39:27Z</time>
      </trkpt>
      <trkpt lat="42.5189" lon="1.99235">
        <ele>2076</ele>
        <time>2008-02-27T13:39:58Z</time>
      </trkpt>
      <trkpt lat="42.51907" lon="1.99283">
        <ele>2073</ele>
        <time>2008-02-27T13:40:28Z</time>
      </trkpt>
      <trkpt lat="42.51922" lon="1.99323">
        <ele>2071</ele>
        <time>2008-02-27T13:40:58Z</time>
      </trkpt>
      <trkpt lat="42.5194" lon="1.9936">
        <ele>2069</ele>
        <time>2008-02-27T13:41:28Z</time>
      </trkpt>
      <trkpt lat="42.5196" lon="1.994">
        <ele>2066</ele>
        <time>2008-02-27T13:41:59Z</time>
      </trkpt>
      <trkpt lat="42.51982" lon="1.99443">
        <ele>2064</ele>
        <time>2008-02-27T13:42:29Z</time>
      </trkpt>
      <trkpt lat="42.51998" lon="1.9948">
        <ele>2063</ele>
        <time>2008-02-27T13:42:59Z</time>
      </trkpt>
      <trkpt lat="42.52028" lon="1.99495">
        <ele>2063</ele>
        <time>2008-02-27T13:43:30Z</time>
      </trkpt>
      <trkpt lat="42.52053" lon="1.9947">
        <ele>2062</ele>
        <time>2008-02-27T13:44:00Z</time>
      </trkpt>
      <trkpt lat="42.52075" lon="1.99452">
        <ele>2061</ele>
        <time>2008-02-27T13:44:30Z</time>
      </trkpt>
      <trkpt lat="42.52093" lon="1.9947">
        <ele>2059</ele>
        <time>2008-02-27T13:45:01Z</time>
      </trkpt>
      <trkpt lat="42.52117" lon="1.99502">
        <ele>2056</ele>
        <time>2008-02-27T13:45:31Z</time>
      </trkpt>
      <trkpt lat="42.52143" lon="1.99515">
        <ele>2052</ele>
        <time>2008-02-27T13:46:01Z</time>
      </trkpt>
      <trkpt lat="42.52173" lon="1.99525">
        <ele>2049</ele>
        <time>2008-02-27T13:46:32Z</time>
      </trkpt>
      <trkpt lat="42.522" lon="1.99515">
        <ele>2048</ele>
        <time>2008-02-27T13:47:02Z</time>
      </trkpt>
      <trkpt lat="42.5223" lon="1.99502">
        <ele>2048</ele>
        <time>2008-02-27T13:47:32Z</time>
      </trkpt>
      <trkpt lat="42.52262" lon="1.99482">
        <ele>2049</ele>
        <time>2008-02-27T13:48:03Z</time>
      </trkpt>
      <trkpt lat="42.52292" lon="1.99472">
        <ele>2050</ele>
        <time>2008-02-27T13:48:33Z</time>
      </trkpt>
      <trkpt lat="42.52315" lon="1.9946">
        <ele>2051</ele>
        <time>2008-02-27T13:49:03Z</time>
      </trkpt>
      <trkpt lat="42.5234" lon="1.99455">
        <ele>2052</ele>
        <time>2008-02-27T13:49:34Z</time>
      </trkpt>
      <trkpt lat="42.52368" lon="1.99455">
        <ele>2054</ele>
        <time>2008-02-27T13:50:04Z</time>
      </trkpt>
      <trkpt lat="42.5239" lon="1.99473">
        <ele>2055</ele>
        <time>2008-02-27T13:50:34Z</time>
      </trkpt>
      <trkpt lat="42.52418" lon="1.99482">
        <ele>2058</ele>
        <time>2008-02-27T13:51:05Z</time>
      </trkpt>
      <trkpt lat="42.52445" lon="1.99495">
        <ele>2062</ele>
        <time>2008-02-27T13:51:35Z</time>
      </trkpt>
      <trkpt lat="42.52463" lon="1.99512">
        <ele>2066</ele>
        <time>2008-02-27T13:52:05Z</time>
      </trkpt>
      <trkpt lat="42.52472" lon="1.99525">
        <ele>2067</ele>
        <time>2008-02-27T13:52:36Z</time>
      </trkpt>
      <trkpt lat="42.52482" lon="1.99552">
        <ele>2068</ele>
        <time>2008-02-27T13:53:06Z</time>
      </trkpt>
      <trkpt lat="42.52503" lon="1.99583">
        <ele>2071</ele>
        <time>2008-02-27T13:53:36Z</time>
      </trkpt>
      <trkpt lat="42.5253" lon="1.9961">
        <ele>2074</ele>
        <time>2008-02-27T13:54:07Z</time>
      </trkpt>
      <trkpt lat="42.52553" lon="1.99637">
        <ele>2075</ele>
        <time>2008-02-27T13:54:37Z</time>
      </trkpt>
      <trkpt lat="42.52582" lon="1.99653">
        <ele>2078</ele>
        <time>2008-02-27T13:55:07Z</time>
      </trkpt>
      <trkpt lat="42.52612" lon="1.9967">
        <ele>2080</ele>
        <time>2008-02-27T13:55:38Z</time>
      </trkpt>
      <trkpt lat="42.52635" lon="1.99698">
        <ele>2081</ele>
        <time>2008-02-27T13:56:08Z</time>
      </trkpt>
      <trkpt lat="42.52655" lon="1.9973">
        <ele>2081</ele>
        <time>2008-02-27T13:56:38Z</time>
      </trkpt>
      <trkpt lat="42.52682" lon="1.99753">
        <ele>2084</ele>
        <time>2008-02-27T13:57:08Z</time>
      </trkpt>
      <trkpt lat="42.52675" lon="1.99715">
        <ele>2086</ele>
        <time>2008-02-27T13:57:39Z</time>
      </trkpt>
      <trkpt lat="42.52662" lon="1.99677">
        <ele>2088</ele>
        <time>2008-02-27T13:58:09Z</time>
      </trkpt>
      <trkpt lat="42.5265" lon="1.99642">
        <ele>2090</ele>
        <time>2008-02-27T13:58:39Z</time>
      </trkpt>
      <trkpt lat="42.5264" lon="1.99602">
        <ele>2093</ele>
        <time>2008-02-27T13:59:10Z</time>
      </trkpt>
      <trkpt lat="42.52633" lon="1.99563">
        <ele>2095</ele>
        <time>2008-02-27T13:59:40Z</time>
      </trkpt>
      <trkpt lat="42.52625" lon="1.99523">
        <ele>2096</ele>
        <time>2008-02-27T14:00:10Z</time>
      </trkpt>
      <trkpt lat="42.52622" lon="1.99487">
        <ele>2098</ele>
        <time>2008-02-27T14:00:41Z</time>
      </trkpt>
      <trkpt lat="42.52623" lon="1.99447">
        <ele>2100</ele>
        <time>2008-02-27T14:01:11Z</time>
      </trkpt>
      <trkpt lat="42.52638" lon="1.99405">
        <ele>2103</ele>
        <time>2008-02-27T14:01:41Z</time>
      </trkpt>
      <trkpt lat="42.52653" lon="1.99397">
        <ele>2105</ele>
        <time>2008-02-27T14:02:12Z</time>
      </trkpt>
      <trkpt lat="42.52682" lon="1.99382">
        <ele>2107</ele>
        <time>2008-02-27T14:02:42Z</time>
      </trkpt>
      <trkpt lat="42.52687" lon="1.99375">
        <ele>2107</ele>
        <time>2008-02-27T14:03:12Z</time>
      </trkpt>
      <trkpt lat="42.52687" lon="1.99378">
        <ele>2108</ele>
        <time>2008-02-27T14:17:55Z</time>
      </trkpt>
      <trkpt lat="42.52712" lon="1.99387">
        <ele>2110</ele>
        <time>2008-02-27T14:18:25Z</time>
      </trkpt>
      <trkpt lat="42.52735" lon="1.99402">
        <ele>2112</ele>
        <time>2008-02-27T14:18:55Z</time>
      </trkpt>
      <trkpt lat="42.52758" lon="1.99423">
        <ele>2114</ele>
        <time>2008-02-27T14:19:26Z</time>
      </trkpt>
      <trkpt lat="42.52767" lon="1.99437">
        <ele>2115</ele>
        <time>2008-02-27T14:19:56Z</time>
      </trkpt>
      <trkpt lat="42.52775" lon="1.99455">
        <ele>2116</ele>
        <time>2008-02-27T14:20:26Z</time>
      </trkpt>
      <trkpt lat="42.52785" lon="1.99492">
        <ele>2117</ele>
        <time>2008-02-27T14:20:57Z</time>
      </trkpt>
      <trkpt lat="42.528" lon="1.99545">
        <ele>2116</ele>
        <time>2008-02-27T14:21:27Z</time>
      </trkpt>
      <trkpt lat="42.52818" lon="1.99593">
        <ele>2116</ele>
        <time>2008-02-27T14:21:57Z</time>
      </trkpt>
      <trkpt lat="42.52843" lon="1.99632">
        <ele>2117</ele>
        <time>2008-02-27T14:22:28Z</time>
      </trkpt>
      <trkpt lat="42.52865" lon="1.99667">
        <ele>2119</ele>
        <time>2008-02-27T14:22:58Z</time>
      </trkpt>
      <trkpt lat="42.52873" lon="1.99685">
        <ele>2119</ele>
        <time>2008-02-27T14:23:28Z</time>
      </trkpt>
      <trkpt lat="42.52892" lon="1.99722">
        <ele>2120</ele>
        <time>2008-02-27T14:23:58Z</time>
      </trkpt>
      <trkpt lat="42.52907" lon="1.99758">
        <ele>2122</ele>
        <time>2008-02-27T14:24:29Z</time>
      </trkpt>
      <trkpt lat="42.52915" lon="1.99787">
        <ele>2123</ele>
        <time>2008-02-27T14:24:59Z</time>
      </trkpt>
      <trkpt lat="42.52933" lon="1.99823">
        <ele>2124</ele>
        <time>2008-02-27T14:25:29Z</time>
      </trkpt>
      <trkpt lat="42.52937" lon="1.99833">
        <ele>2125</ele>
        <time>2008-02-27T14:26:00Z</time>
      </trkpt>
      <trkpt lat="42.52932" lon="1.99853">
        <ele>2124</ele>
        <time>2008-02-27T14:26:30Z</time>
      </trkpt>
      <trkpt lat="42.52928" lon="1.99892">
        <ele>2123</ele>
        <time>2008-02-27T14:27:00Z</time>
      </trkpt>
      <trkpt lat="42.52922" lon="1.99897">
        <ele>2123</ele>
        <time>2008-02-27T14:28:01Z</time>
      </trkpt>
      <trkpt lat="42.52925" lon="1.99908">
        <ele>2123</ele>
        <time>2008-02-27T14:28:31Z</time>
      </trkpt>
      <trkpt lat="42.52917" lon="1.99948">
        <ele>2122</ele>
        <time>2008-02-27T14:29:02Z</time>
      </trkpt>
      <trkpt lat="42.5291" lon="1.99995">
        <ele>2121</ele>
        <time>2008-02-27T14:29:32Z</time>
      </trkpt>
      <trkpt lat="42.52905" lon="2.00043">
        <ele>2122</ele>
        <time>2008-02-27T14:30:02Z</time>
      </trkpt>
      <trkpt lat="42.52902" lon="2.00092">
        <ele>2123</ele>
        <time>2008-02-27T14:30:33Z</time>
      </trkpt>
      <trkpt lat="42.529" lon="2.00135">
        <ele>2122</ele>
        <time>2008-02-27T14:31:03Z</time>
      </trkpt>
      <trkpt lat="42.52897" lon="2.00185">
        <ele>2122</ele>
        <time>2008-02-27T14:31:33Z</time>
      </trkpt>
      <trkpt lat="42.5289" lon="2.00232">
        <ele>2121</ele>
        <time>2008-02-27T14:32:04Z</time>
      </trkpt>
      <trkpt lat="42.52887" lon="2.00282">
        <ele>2122</ele>
        <time>2008-02-27T14:32:34Z</time>
      </trkpt>
      <trkpt lat="42.52883" lon="2.00327">
        <ele>2123</ele>
        <time>2008-02-27T14:33:04Z</time>
      </trkpt>
      <trkpt lat="42.52882" lon="2.00375">
        <ele>2124</ele>
        <time>2008-02-27T14:33:35Z</time>
      </trkpt>
      <trkpt lat="42.52883" lon="2.00395">
        <ele>2125</ele>
        <time>2008-02-27T14:34:05Z</time>
      </trkpt>
      <trkpt lat="42.52887" lon="2.0044">
        <ele>2124</ele>
        <time>2008-02-27T14:34:35Z</time>
      </trkpt>
      <trkpt lat="42.52885" lon="2.00465">
        <ele>2123</ele>
        <time>2008-02-27T14:35:06Z</time>
      </trkpt>
      <trkpt lat="42.5288" lon="2.00505">
        <ele>2120</ele>
        <time>2008-02-27T14:35:36Z</time>
      </trkpt>
      <trkpt lat="42.52867" lon="2.00545">
        <ele>2117</ele>
        <time>2008-02-27T14:36:06Z</time>
      </trkpt>
      <trkpt lat="42.52853" lon="2.0059">
        <ele>2114</ele>
        <time>2008-02-27T14:36:37Z</time>
      </trkpt>
      <trkpt lat="42.52833" lon="2.0063">
        <ele>2112</ele>
        <time>2008-02-27T14:37:07Z</time>
      </trkpt>
      <trkpt lat="42.5282" lon="2.00658">
        <ele>2110</ele>
        <time>2008-02-27T14:37:37Z</time>
      </trkpt>
      <trkpt lat="42.52795" lon="2.00688">
        <ele>2108</ele>
        <time>2008-02-27T14:38:08Z</time>
      </trkpt>
      <trkpt lat="42.5277" lon="2.00712">
        <ele>2106</ele>
        <time>2008-02-27T14:38:38Z</time>
      </trkpt>
      <trkpt lat="42.52745" lon="2.00737">
        <ele>2103</ele>
        <time>2008-02-27T14:39:08Z</time>
      </trkpt>
      <trkpt lat="42.52722" lon="2.00762">
        <ele>2096</ele>
        <time>2008-02-27T14:39:39Z</time>
      </trkpt>
      <trkpt lat="42.52692" lon="2.00753">
        <ele>2094</ele>
        <time>2008-02-27T14:40:09Z</time>
      </trkpt>
      <trkpt lat="42.52665" lon="2.00735">
        <ele>2095</ele>
        <time>2008-02-27T14:40:39Z</time>
      </trkpt>
      <trkpt lat="42.52635" lon="2.0073">
        <ele>2090</ele>
        <time>2008-02-27T14:41:09Z</time>
      </trkpt>
      <trkpt lat="42.52638" lon="2.00763">
        <ele>2083</ele>
        <time>2008-02-27T14:41:40Z</time>
      </trkpt>
      <trkpt lat="42.52612" lon="2.00773">
        <ele>2076</ele>
        <time>2008-02-27T14:42:10Z</time>
      </trkpt>
      <trkpt lat="42.52587" lon="2.0078">
        <ele>2072</ele>
        <time>2008-02-27T14:42:40Z</time>
      </trkpt>
      <trkpt lat="42.52573" lon="2.0078">
        <ele>2070</ele>
        <time>2008-02-27T14:43:11Z</time>
      </trkpt>
      <trkpt lat="42.52548" lon="2.00805">
        <ele>2064</ele>
        <time>2008-02-27T14:43:41Z</time>
      </trkpt>
      <trkpt lat="42.52532" lon="2.00833">
        <ele>2059</ele>
        <time>2008-02-27T14:44:11Z</time>
      </trkpt>
      <trkpt lat="42.52512" lon="2.00855">
        <ele>2054</ele>
        <time>2008-02-27T14:44:42Z</time>
      </trkpt>
      <trkpt lat="42.52492" lon="2.0089">
        <ele>2047</ele>
        <time>2008-02-27T14:45:12Z</time>
      </trkpt>
      <trkpt lat="42.52463" lon="2.00907">
        <ele>2042</ele>
        <time>2008-02-27T14:45:42Z</time>
      </trkpt>
      <trkpt lat="42.5243" lon="2.00905">
        <ele>2039</ele>
        <time>2008-02-27T14:46:13Z</time>
      </trkpt>
      <trkpt lat="42.52405" lon="2.00907">
        <ele>2037</ele>
        <time>2008-02-27T14:46:43Z</time>
      </trkpt>
      <trkpt lat="42.52365" lon="2.00913">
        <ele>2033</ele>
        <time>2008-02-27T14:47:14Z</time>
      </trkpt>
      <trkpt lat="42.52328" lon="2.00925">
        <ele>2029</ele>
        <time>2008-02-27T14:47:44Z</time>
      </trkpt>
      <trkpt lat="42.52293" lon="2.00927">
        <ele>2026</ele>
        <time>2008-02-27T14:48:14Z</time>
      </trkpt>
      <trkpt lat="42.52263" lon="2.00915">
        <ele>2024</ele>
        <time>2008-02-27T14:48:45Z</time>
      </trkpt>
      <trkpt lat="42.52253" lon="2.00913">
        <ele>2023</ele>
        <time>2008-02-27T14:49:15Z</time>
      </trkpt>
      <trkpt lat="42.5224" lon="2.00912">
        <ele>2022</ele>
        <time>2008-02-27T14:49:46Z</time>
      </trkpt>
      <trkpt lat="42.52202" lon="2.00903">
        <ele>2017</ele>
        <time>2008-02-27T14:50:16Z</time>
      </trkpt>
      <trkpt lat="42.52167" lon="2.00902">
        <ele>2011</ele>
        <time>2008-02-27T14:50:46Z</time>
      </trkpt>
      <trkpt lat="42.5213" lon="2.00902">
        <ele>2004</ele>
        <time>2008-02-27T14:51:17Z</time>
      </trkpt>
      <trkpt lat="42.52093" lon="2.00898">
        <ele>2000</ele>
        <time>2008-02-27T14:51:47Z</time>
      </trkpt>
      <trkpt lat="42.5206" lon="2.00898">
        <ele>1996</ele>
        <time>2008-02-27T14:52:17Z</time>
      </trkpt>
      <trkpt lat="42.52052" lon="2.009">
        <ele>1995</ele>
        <time>2008-02-27T14:52:48Z</time>
      </trkpt>
      <trkpt lat="42.52015" lon="2.009">
        <ele>1992</ele>
        <time>2008-02-27T14:53:18Z</time>
      </trkpt>
      <trkpt lat="42.51987" lon="2.0091">
        <ele>1989</ele>
        <time>2008-02-27T14:53:48Z</time>
      </trkpt>
      <trkpt lat="42.51967" lon="2.00913">
        <ele>1987</ele>
        <time>2008-02-27T14:54:19Z</time>
      </trkpt>
      <trkpt lat="42.51943" lon="2.00937">
        <ele>1984</ele>
        <time>2008-02-27T14:54:49Z</time>
      </trkpt>
      <trkpt lat="42.5193" lon="2.00957">
        <ele>1982</ele>
        <time>2008-02-27T14:55:19Z</time>
      </trkpt>
      <trkpt lat="42.51898" lon="2.00982">
        <ele>1980</ele>
        <time>2008-02-27T14:55:50Z</time>
      </trkpt>
      <trkpt lat="42.51862" lon="2.01003">
        <ele>1978</ele>
        <time>2008-02-27T14:56:20Z</time>
      </trkpt>
      <trkpt lat="42.51832" lon="2.01013">
        <ele>1977</ele>
        <time>2008-02-27T14:56:50Z</time>
      </trkpt>
      <trkpt lat="42.518" lon="2.0103">
        <ele>1974</ele>
        <time>2008-02-27T14:57:21Z</time>
      </trkpt>
      <trkpt lat="42.51785" lon="2.01033">
        <ele>1974</ele>
        <time>2008-02-27T14:57:51Z</time>
      </trkpt>
      <trkpt lat="42.51785" lon="2.01033">
        <ele>1974</ele>
        <time>2008-02-27T14:58:21Z</time>
      </trkpt>
      <trkpt lat="42.51785" lon="2.01033">
        <ele>1974</ele>
        <time>2008-02-27T14:58:52Z</time>
      </trkpt>
      <trkpt lat="42.51785" lon="2.01033">
        <ele>1974</ele>
        <time>2008-02-27T14:59:22Z</time>
      </trkpt>
      <trkpt lat="42.51753" lon="2.01042">
        <ele>1973</ele>
        <time>2008-02-27T14:59:52Z</time>
      </trkpt>
      <trkpt lat="42.51715" lon="2.01057">
        <ele>1971</ele>
        <time>2008-02-27T15:00:23Z</time>
      </trkpt>
      <trkpt lat="42.51682" lon="2.0108">
        <ele>1968</ele>
        <time>2008-02-27T15:00:53Z</time>
      </trkpt>
      <trkpt lat="42.5166" lon="2.01113">
        <ele>1965</ele>
        <time>2008-02-27T15:01:23Z</time>
      </trkpt>
      <trkpt lat="42.51638" lon="2.01147">
        <ele>1963</ele>
        <time>2008-02-27T15:01:54Z</time>
      </trkpt>
      <trkpt lat="42.51622" lon="2.0118">
        <ele>1962</ele>
        <time>2008-02-27T15:02:24Z</time>
      </trkpt>
      <trkpt lat="42.51607" lon="2.0121">
        <ele>1958</ele>
        <time>2008-02-27T15:02:54Z</time>
      </trkpt>
      <trkpt lat="42.51592" lon="2.01228">
        <ele>1956</ele>
        <time>2008-02-27T15:03:25Z</time>
      </trkpt>
      <trkpt lat="42.51583" lon="2.01232">
        <ele>1954</ele>
        <time>2008-02-27T15:03:55Z</time>
      </trkpt>
      <trkpt lat="42.51568" lon="2.01268">
        <ele>1950</ele>
        <time>2008-02-27T15:04:25Z</time>
      </trkpt>
      <trkpt lat="42.51543" lon="2.01297">
        <ele>1948</ele>
        <time>2008-02-27T15:04:56Z</time>
      </trkpt>
      <trkpt lat="42.5153" lon="2.01323">
        <ele>1947</ele>
        <time>2008-02-27T15:05:26Z</time>
      </trkpt>
      <trkpt lat="42.51532" lon="2.01347">
        <ele>1944</ele>
        <time>2008-02-27T15:05:56Z</time>
      </trkpt>
      <trkpt lat="42.51535" lon="2.01387">
        <ele>1937</ele>
        <time>2008-02-27T15:06:27Z</time>
      </trkpt>
      <trkpt lat="42.51545" lon="2.01418">
        <ele>1931</ele>
        <time>2008-02-27T15:06:57Z</time>
      </trkpt>
      <trkpt lat="42.51553" lon="2.01433">
        <ele>1927</ele>
        <time>2008-02-27T15:07:28Z</time>
      </trkpt>
      <trkpt lat="42.51567" lon="2.01457">
        <ele>1923</ele>
        <time>2008-02-27T15:07:58Z</time>
      </trkpt>
      <trkpt lat="42.5159" lon="2.01485">
        <ele>1917</ele>
        <time>2008-02-27T15:08:28Z</time>
      </trkpt>
      <trkpt lat="42.51605" lon="2.01503">
        <ele>1913</ele>
        <time>2008-02-27T15:08:59Z</time>
      </trkpt>
      <trkpt lat="42.5161" lon="2.01518">
        <ele>1911</ele>
        <time>2008-02-27T15:09:29Z</time>
      </trkpt>
      <trkpt lat="42.51613" lon="2.0153">
        <ele>1908</ele>
        <time>2008-02-27T15:10:00Z</time>
      </trkpt>
      <trkpt lat="42.51643" lon="2.0155">
        <ele>1904</ele>
        <time>2008-02-27T15:10:30Z</time>
      </trkpt>
      <trkpt lat="42.5166" lon="2.0157">
        <ele>1901</ele>
        <time>2008-02-27T15:11:00Z</time>
      </trkpt>
      <trkpt lat="42.51663" lon="2.01582">
        <ele>1898</ele>
        <time>2008-02-27T15:11:31Z</time>
      </trkpt>
      <trkpt lat="42.51655" lon="2.01607">
        <ele>1893</ele>
        <time>2008-02-27T15:12:01Z</time>
      </trkpt>
      <trkpt lat="42.51652" lon="2.01622">
        <ele>1890</ele>
        <time>2008-02-27T15:12:31Z</time>
      </trkpt>
      <trkpt lat="42.51653" lon="2.0164">
        <ele>1887</ele>
        <time>2008-02-27T15:13:02Z</time>
      </trkpt>
      <trkpt lat="42.51637" lon="2.01658">
        <ele>1884</ele>
        <time>2008-02-27T15:13:32Z</time>
      </trkpt>
      <trkpt lat="42.51633" lon="2.01663">
        <ele>1883</ele>
        <time>2008-02-27T15:14:03Z</time>
      </trkpt>
      <trkpt lat="42.51628" lon="2.0168">
        <ele>1880</ele>
        <time>2008-02-27T15:14:33Z</time>
      </trkpt>
      <trkpt lat="42.51627" lon="2.01687">
        <ele>1879</ele>
        <time>2008-02-27T15:15:03Z</time>
      </trkpt>
      <trkpt lat="42.51613" lon="2.01697">
        <ele>1877</ele>
        <time>2008-02-27T15:15:34Z</time>
      </trkpt>
      <trkpt lat="42.51592" lon="2.01713">
        <ele>1874</ele>
        <time>2008-02-27T15:16:04Z</time>
      </trkpt>
      <trkpt lat="42.51578" lon="2.0173">
        <ele>1871</ele>
        <time>2008-02-27T15:16:34Z</time>
      </trkpt>
      <trkpt lat="42.51555" lon="2.01743">
        <ele>1869</ele>
        <time>2008-02-27T15:17:05Z</time>
      </trkpt>
      <trkpt lat="42.51535" lon="2.01762">
        <ele>1867</ele>
        <time>2008-02-27T15:17:35Z</time>
      </trkpt>
      <trkpt lat="42.51538" lon="2.01797">
        <ele>1862</ele>
        <time>2008-02-27T15:18:05Z</time>
      </trkpt>
      <trkpt lat="42.51523" lon="2.01825">
        <ele>1859</ele>
        <time>2008-02-27T15:18:36Z</time>
      </trkpt>
      <trkpt lat="42.51513" lon="2.01855">
        <ele>1855</ele>
        <time>2008-02-27T15:19:06Z</time>
      </trkpt>
      <trkpt lat="42.51487" lon="2.01873">
        <ele>1852</ele>
        <time>2008-02-27T15:19:36Z</time>
      </trkpt>
      <trkpt lat="42.5148" lon="2.01865">
        <ele>1852</ele>
        <time>2008-02-27T15:20:07Z</time>
      </trkpt>
      <trkpt lat="42.5146" lon="2.01862">
        <ele>1851</ele>
        <time>2008-02-27T15:20:37Z</time>
      </trkpt>
      <trkpt lat="42.51453" lon="2.0188">
        <ele>1848</ele>
        <time>2008-02-27T15:21:08Z</time>
      </trkpt>
      <trkpt lat="42.5144" lon="2.0192">
        <ele>1842</ele>
        <time>2008-02-27T15:21:38Z</time>
      </trkpt>
      <trkpt lat="42.51428" lon="2.01933">
        <ele>1840</ele>
        <time>2008-02-27T15:22:08Z</time>
      </trkpt>
      <trkpt lat="42.5141" lon="2.01943">
        <ele>1837</ele>
        <time>2008-02-27T15:38:20Z</time>
      </trkpt>
      <trkpt lat="42.51387" lon="2.01932">
        <ele>1835</ele>
        <time>2008-02-27T15:38:51Z</time>
      </trkpt>
      <trkpt lat="42.51348" lon="2.01948">
        <ele>1830</ele>
        <time>2008-02-27T15:39:21Z</time>
      </trkpt>
      <trkpt lat="42.51332" lon="2.01962">
        <ele>1828</ele>
        <time>2008-02-27T15:39:51Z</time>
      </trkpt>
      <trkpt lat="42.51307" lon="2.01967">
        <ele>1826</ele>
        <time>2008-02-27T15:40:22Z</time>
      </trkpt>
      <trkpt lat="42.51283" lon="2.01967">
        <ele>1826</ele>
        <time>2008-02-27T15:40:52Z</time>
      </trkpt>
      <trkpt lat="42.51263" lon="2.01972">
        <ele>1824</ele>
        <time>2008-02-27T15:41:22Z</time>
      </trkpt>
      <trkpt lat="42.51223" lon="2.01982">
        <ele>1820</ele>
        <time>2008-02-27T15:41:53Z</time>
      </trkpt>
      <trkpt lat="42.5121" lon="2.01987">
        <ele>1818</ele>
        <time>2008-02-27T15:42:23Z</time>
      </trkpt>
      <trkpt lat="42.51205" lon="2.01985">
        <ele>1818</ele>
        <time>2008-02-27T15:42:54Z</time>
      </trkpt>
      <trkpt lat="42.51197" lon="2.01992">
        <ele>1816</ele>
        <time>2008-02-27T15:43:24Z</time>
      </trkpt>
      <trkpt lat="42.51162" lon="2.01987">
        <ele>1812</ele>
        <time>2008-02-27T15:43:54Z</time>
      </trkpt>
      <trkpt lat="42.51108" lon="2.01987">
        <ele>1806</ele>
        <time>2008-02-27T15:44:25Z</time>
      </trkpt>
      <trkpt lat="42.5109" lon="2.01992">
        <ele>1804</ele>
        <time>2008-02-27T15:44:55Z</time>
      </trkpt>
      <trkpt lat="42.51072" lon="2.01985">
        <ele>1803</ele>
        <time>2008-02-27T15:45:25Z</time>
      </trkpt>
      <trkpt lat="42.51055" lon="2.01978">
        <ele>1802</ele>
        <time>2008-02-27T15:45:56Z</time>
      </trkpt>
      <trkpt lat="42.51017" lon="2.01968">
        <ele>1801</ele>
        <time>2008-02-27T15:46:26Z</time>
      </trkpt>
      <trkpt lat="42.50982" lon="2.01967">
        <ele>1797</ele>
        <time>2008-02-27T15:46:56Z</time>
      </trkpt>
      <trkpt lat="42.50957" lon="2.01978">
        <ele>1790</ele>
        <time>2008-02-27T15:47:27Z</time>
      </trkpt>
      <trkpt lat="42.5091" lon="2.01962">
        <ele>1785</ele>
        <time>2008-02-27T15:47:57Z</time>
      </trkpt>
      <trkpt lat="42.5088" lon="2.01962">
        <ele>1779</ele>
        <time>2008-02-27T15:48:27Z</time>
      </trkpt>
      <trkpt lat="42.50868" lon="2.01952">
        <ele>1777</ele>
        <time>2008-02-27T15:48:58Z</time>
      </trkpt>
      <trkpt lat="42.50838" lon="2.01943">
        <ele>1770</ele>
        <time>2008-02-27T15:49:28Z</time>
      </trkpt>
      <trkpt lat="42.50832" lon="2.01947">
        <ele>1769</ele>
        <time>2008-02-27T15:49:58Z</time>
      </trkpt>
      <trkpt lat="42.50832" lon="2.0195">
        <ele>1769</ele>
        <time>2008-02-27T15:50:29Z</time>
      </trkpt>
      <trkpt lat="42.5083" lon="2.01953">
        <ele>1769</ele>
        <time>2008-02-27T15:50:59Z</time>
      </trkpt>
      <trkpt lat="42.5083" lon="2.01955">
        <ele>1769</ele>
        <time>2008-02-27T15:51:29Z</time>
      </trkpt>
      <trkpt lat="42.50827" lon="2.01953">
        <ele>1768</ele>
        <time>2008-02-27T15:51:59Z</time>
      </trkpt>
      <trkpt lat="42.50813" lon="2.0194">
        <ele>1764</ele>
        <time>2008-02-27T15:52:30Z</time>
      </trkpt>
      <trkpt lat="42.50797" lon="2.0191">
        <ele>1760</ele>
        <time>2008-02-27T15:53:00Z</time>
      </trkpt>
      <trkpt lat="42.50788" lon="2.01892">
        <ele>1758</ele>
        <time>2008-02-27T15:53:30Z</time>
      </trkpt>
      <trkpt lat="42.50777" lon="2.01867">
        <ele>1754</ele>
        <time>2008-02-27T15:54:01Z</time>
      </trkpt>
      <trkpt lat="42.50763" lon="2.01847">
        <ele>1752</ele>
        <time>2008-02-27T15:54:31Z</time>
      </trkpt>
      <trkpt lat="42.5075" lon="2.01813">
        <ele>1747</ele>
        <time>2008-02-27T15:55:01Z</time>
      </trkpt>
      <trkpt lat="42.5075" lon="2.01807">
        <ele>1747</ele>
        <time>2008-02-27T15:55:32Z</time>
      </trkpt>
    </trkseg>
  </trk>
</gpx>